Greer, SC (29650)

10:39 AM EST on December 06, 2016 (GMT -0500)
Thornblade | | Change Station

Elev 866 ft 34.87 °N, 82.27 °W | Updated 8 minutes ago

Overcast
Overcast
45.7 °F
Feels Like 40 °F
N
11.0
Wind Variable Wind from NNE
Gusts 11.0 mph

Today
High -- | Low -- °F
--% Chance of Precip.
Yesterday
High -- | Low -- °F
Precip. -- in
Pressure 29.80 in
Visibility 2.5 miles
Clouds Overcast 600 ft
Windchill 40 °F
Dew Point 44 °F
Humidity 95%
Rainfall 0.00 in
Snow Depth Not available.
7:23 AM 5:17 PM
Waxing Crescent, 42% visible
METAR KGSP 061453Z 06013G18KT 2 1/2SM BR OVC006 08/06 A2980 RMK AO2 RAE33 SLP090 P0002 60015 T00780061 56014
Pressure 29.80 in
Visibility 2.5 miles
Clouds Overcast 600 ft
Windchill 40 °F
Dew Point 44 °F
Humidity 95%
Rainfall 0.00 in
Snow Depth Not available.
7:23 AM 5:17 PM
Waxing Crescent, 42% visible
METAR KGSP 061453Z 06013G18KT 2 1/2SM BR OVC006 08/06 A2980 RMK AO2 RAE33 SLP090 P0002 60015 T00780061 56014

10-Day Weather Forecast

Almanac

Astronomy

Dec. 06, 2016 Rise Set
Actual Time
Civil Twilight
Nautical Twilight
Astronomical Twilight
Moon
Length of Visible Light
Length of Day
Tomorrow will be .
, % of the Moon is Illuminated

Today's Extremes

State Highs State Lows

Community

WunderPhotos

Upload Photos

1,955,957 photos uploaded!

WunderBlog® & News

Nearby

Air Quality

  Air Quality AQ Index Pollutant
Not available.

Snow Depth

Station Depth Elevation

Earthquake Activity

City Distance Mag. Time & Date
Minimum magnitude displayed is 2.5.

Coastal Water Temperatures

Place Temperature

Stations

Nearby Weather Stations

Station Location Temp. Windchill Dew Point Humidity Wind Precip. Elev Updated Type
                   

Watches & Warnings

There are currently no watches in effect.